Terminal Aerodrome Forecast
Issued by NWS Charleston, WV

Current Version | Previous Version | Text Only | Print | Product List | Glossary Off
Versions: 1 2 3 4 5 6 7 8 9 10 11 12 13 14 15 16 17 18 19 20 21 22 23 24 25

000
FTUS41 KRLX 270500
TAFHTS
TAF
KHTS 270537Z 2706/2806 00000KT 6SM BR FEW001
     FM270900 00000KT 3SM BR SCT001
     FM271200 00000KT 6SM BR FEW002
     FM271300 00000KT P6SM FEW090
     FM272000 00000KT P6SM BKN045
     FM272100 VRB03KT P6SM VCTS BKN045CB
     FM280000 VRB03KT P6SM BKN050=

USA.gov is the U.S. government's official web portal to all federal, state and local government web resources and services.